sensor_id;sensor_type;location;lat;lon;timestamp;pressure;altitude;pressure_sealevel;temperature;humidity
20860;BME280;10590;48.154;11.514;2023-09-07T00:01:06;96011.75;;;16.57;76.82
20860;BME280;10590;48.154;11.514;2023-09-07T00:06:28;96036.97;;;16.93;75.92
20860;BME280;10590;48.154;11.514;2023-09-07T00:11:49;96007.69;;;16.23;77.45
20860;BME280;10590;48.154;11.514;2023-09-07T00:17:12;96037.81;;;16.53;77.79
20860;BME280;10590;48.154;11.514;2023-09-07T00:22:34;96011.03;;;16.32;78.79
20860;BME280;10590;48.154;11.514;2023-09-07T00:27:56;96013.38;;;16.34;78.86
20860;BME280;10590;48.154;11.514;2023-09-07T00:33:20;96024.25;;;16.37;78.95
20860;BME280;10590;48.154;11.514;2023-09-07T00:38:42;95982.34;;;16.24;78.39
20860;BME280;10590;48.154;11.514;2023-09-07T00:44:04;96007.22;;;16.33;79.37
20860;BME280;10590;48.154;11.514;2023-09-07T00:49:27;96016.25;;;16.13;80.57
20860;BME280;10590;48.154;11.514;2023-09-07T00:54:50;96013.13;;;16.11;79.86
20860;BME280;10590;48.154;11.514;2023-09-07T01:00:12;96030.84;;;16.12;79.97
20860;BME280;10590;48.154;11.514;2023-09-07T01:05:41;96007.59;;;15.67;81.59
20860;BME280;10590;48.154;11.514;2023-09-07T01:11:12;96026.41;;;15.67;81.84
20860;BME280;10590;48.154;11.514;2023-09-07T01:16:34;96005.63;;;15.55;82.50
20860;BME280;10590;48.154;11.514;2023-09-07T01:22:00;96011.84;;;15.68;82.71
20860;BME280;10590;48.154;11.514;2023-09-07T01:27:22;95982.22;;;15.44;82.72
20860;BME280;10590;48.154;11.514;2023-09-07T01:32:44;95991.19;;;15.48;82.95
20860;BME280;10590;48.154;11.514;2023-09-07T01:38:08;95993.44;;;15.34;83.74
20860;BME280;10590;48.154;11.514;2023-09-07T01:43:31;95985.25;;;15.18;84.13
20860;BME280;10590;48.154;11.514;2023-09-07T01:48:56;95991.53;;;15.34;83.76
20860;BME280;10590;48.154;11.514;2023-09-07T01:54:23;96009.91;;;15.44;83.94
20860;BME280;10590;48.154;11.514;2023-09-07T01:59:46;96011.00;;;15.31;84.85
20860;BME280;10590;48.154;11.514;2023-09-07T02:05:08;96000.69;;;15.09;85.41
20860;BME280;10590;48.154;11.514;2023-09-07T02:10:33;95983.53;;;14.89;85.59
20860;BME280;10590;48.154;11.514;2023-09-07T02:15:54;95986.78;;;14.08;88.76
20860;BME280;10590;48.154;11.514;2023-09-07T02:21:17;96013.88;;;14.15;90.15
20860;BME280;10590;48.154;11.514;2023-09-07T02:26:40;96001.34;;;14.40;88.73
20860;BME280;10590;48.154;11.514;2023-09-07T02:32:06;95983.16;;;14.45;87.72
20860;BME280;10590;48.154;11.514;2023-09-07T02:37:28;96027.28;;;14.56;87.82
20860;BME280;10590;48.154;11.514;2023-09-07T02:42:51;95981.47;;;14.20;87.79
20860;BME280;10590;48.154;11.514;2023-09-07T02:48:13;96012.38;;;14.26;87.44
20860;BME280;10590;48.154;11.514;2023-09-07T02:53:35;95991.25;;;14.03;87.11
20860;BME280;10590;48.154;11.514;2023-09-07T02:58:58;95986.66;;;14.04;86.68
20860;BME280;10590;48.154;11.514;2023-09-07T03:04:20;96016.44;;;13.90;88.21
20860;BME280;10590;48.154;11.514;2023-09-07T03:09:42;96009.13;;;13.70;89.51
20860;BME280;10590;48.154;11.514;2023-09-07T03:15:07;95990.47;;;13.74;87.80
20860;BME280;10590;48.154;11.514;2023-09-07T03:20:29;96016.69;;;13.97;87.94
20860;BME280;10590;48.154;11.514;2023-09-07T03:25:54;95991.41;;;13.78;87.16
20860;BME280;10590;48.154;11.514;2023-09-07T03:31:17;96014.25;;;13.84;87.39
20860;BME280;10590;48.154;11.514;2023-09-07T03:36:39;96025.88;;;13.67;87.31
20860;BME280;10590;48.154;11.514;2023-09-07T03:42:00;96026.03;;;13.62;88.41
20860;BME280;10590;48.154;11.514;2023-09-07T03:47:23;96019.16;;;13.52;88.68
20860;BME280;10590;48.154;11.514;2023-09-07T03:52:49;96008.84;;;13.33;89.21
20860;BME280;10590;48.154;11.514;2023-09-07T03:58:11;95990.59;;;13.27;88.74
20860;BME280;10590;48.154;11.514;2023-09-07T04:03:34;96026.69;;;13.29;89.59
20860;BME280;10590;48.154;11.514;2023-09-07T04:08:56;96007.66;;;13.22;89.85
20860;BME280;10590;48.154;11.514;2023-09-07T04:14:18;96027.38;;;13.09;90.13
20860;BME280;10590;48.154;11.514;2023-09-07T04:19:41;96046.13;;;13.09;89.98
20860;BME280;10590;48.154;11.514;2023-09-07T04:25:04;96025.41;;;12.71;91.91
20860;BME280;10590;48.154;11.514;2023-09-07T04:30:26;96037.72;;;12.47;93.25
20860;BME280;10590;48.154;11.514;2023-09-07T04:35:49;96043.66;;;12.69;92.67
20860;BME280;10590;48.154;11.514;2023-09-07T04:41:11;96050.06;;;12.94;91.05
20860;BME280;10590;48.154;11.514;2023-09-07T04:46:33;96021.19;;;12.36;92.31
20860;BME280;10590;48.154;11.514;2023-09-07T04:51:57;96035.97;;;12.07;95.05
20860;BME280;10590;48.154;11.514;2023-09-07T04:57:18;96033.97;;;12.22;94.81
20860;BME280;10590;48.154;11.514;2023-09-07T05:02:40;96047.19;;;12.27;95.61
20860;BME280;10590;48.154;11.514;2023-09-07T05:08:05;96050.28;;;12.72;93.37
20860;BME280;10590;48.154;11.514;2023-09-07T05:13:27;96046.13;;;13.18;90.13
20860;BME280;10590;48.154;11.514;2023-09-07T05:18:48;96043.47;;;12.92;90.59
20860;BME280;10590;48.154;11.514;2023-09-07T05:24:13;96056.84;;;13.56;88.72
20860;BME280;10590;48.154;11.514;2023-09-07T05:29:35;96055.50;;;13.70;87.78
20860;BME280;10590;48.154;11.514;2023-09-07T05:34:57;96036.66;;;13.88;87.14
20860;BME280;10590;48.154;11.514;2023-09-07T05:40:20;96055.53;;;13.62;89.03
20860;BME280;10590;48.154;11.514;2023-09-07T05:45:42;96070.47;;;14.51;86.15
20860;BME280;10590;48.154;11.514;2023-09-07T05:51:07;96055.50;;;15.53;81.27
20860;BME280;10590;48.154;11.514;2023-09-07T05:56:30;96040.72;;;15.47;81.54
20860;BME280;10590;48.154;11.514;2023-09-07T06:01:53;96080.44;;;15.86;81.07
20860;BME280;10590;48.154;11.514;2023-09-07T06:07:16;96069.13;;;16.45;78.63
20860;BME280;10590;48.154;11.514;2023-09-07T06:12:39;96078.31;;;16.56;78.82
20860;BME280;10590;48.154;11.514;2023-09-07T06:18:00;96086.59;;;16.76;78.45
20860;BME280;10590;48.154;11.514;2023-09-07T06:23:23;96048.72;;;16.84;78.04
20860;BME280;10590;48.154;11.514;2023-09-07T06:28:46;96054.19;;;17.63;74.30
20860;BME280;10590;48.154;11.514;2023-09-07T06:34:11;96051.72;;;19.63;66.09
20860;BME280;10590;48.154;11.514;2023-09-07T06:39:32;96072.22;;;21.74;59.79
20860;BME280;10590;48.154;11.514;2023-09-07T06:44:56;96069.66;;;21.51;58.68
20860;BME280;10590;48.154;11.514;2023-09-07T06:50:17;96070.63;;;20.95;60.80
20860;BME280;10590;48.154;11.514;2023-09-07T06:55:41;96062.56;;;21.80;56.78
20860;BME280;10590;48.154;11.514;2023-09-07T07:01:06;96064.50;;;23.39;52.08
20860;BME280;10590;48.154;11.514;2023-09-07T07:06:28;96075.78;;;23.34;52.75
20860;BME280;10590;48.154;11.514;2023-09-07T07:11:49;96067.59;;;23.16;52.11
20860;BME280;10590;48.154;11.514;2023-09-07T07:17:13;96079.75;;;24.19;50.18
20860;BME280;10590;48.154;11.514;2023-09-07T07:22:34;96092.50;;;23.29;50.60
20860;BME280;10590;48.154;11.514;2023-09-07T07:27:56;96080.22;;;25.29;46.78
20860;BME280;10590;48.154;11.514;2023-09-07T07:33:20;96087.06;;;24.78;49.46
20860;BME280;10590;48.154;11.514;2023-09-07T07:38:42;96092.19;;;26.53;43.81
20860;BME280;10590;48.154;11.514;2023-09-07T07:44:03;96093.34;;;25.56;47.90
20860;BME280;10590;48.154;11.514;2023-09-07T07:49:26;96092.00;;;25.82;45.01
20860;BME280;10590;48.154;11.514;2023-09-07T07:54:48;96095.78;;;25.39;45.86
20860;BME280;10590;48.154;11.514;2023-09-07T08:00:11;96094.91;;;26.53;45.60
20860;BME280;10590;48.154;11.514;2023-09-07T08:05:34;96093.41;;;26.00;44.90
20860;BME280;10590;48.154;11.514;2023-09-07T08:10:56;96080.94;;;23.61;50.11
20860;BME280;10590;48.154;11.514;2023-09-07T08:16:20;96081.09;;;25.78;44.28
20860;BME280;10590;48.154;11.514;2023-09-07T08:21:43;96071.56;;;27.13;42.90
20860;BME280;10590;48.154;11.514;2023-09-07T08:27:06;96092.63;;;25.45;45.23
20860;BME280;10590;48.154;11.514;2023-09-07T08:32:31;96082.56;;;26.38;45.88
20860;BME280;10590;48.154;11.514;2023-09-07T08:37:55;96085.16;;;27.20;42.42
20860;BME280;10590;48.154;11.514;2023-09-07T08:43:19;96076.19;;;24.61;48.33
20860;BME280;10590;48.154;11.514;2023-09-07T08:48:42;96077.97;;;28.11;41.74
20860;BME280;10590;48.154;11.514;2023-09-07T08:54:07;96080.09;;;27.19;43.00
20860;BME280;10590;48.154;11.514;2023-09-07T08:59:30;96083.78;;;26.30;44.77
20860;BME280;10590;48.154;11.514;2023-09-07T09:04:52;96081.88;;;28.57;40.65
20860;BME280;10590;48.154;11.514;2023-09-07T09:10:17;96070.31;;;29.08;39.48
20860;BME280;10590;48.154;11.514;2023-09-07T09:15:39;96060.03;;;28.93;39.78
20860;BME280;10590;48.154;11.514;2023-09-07T09:21:00;96084.94;;;28.62;40.03
20860;BME280;10590;48.154;11.514;2023-09-07T09:26:24;96064.69;;;29.84;37.71
20860;BME280;10590;48.154;11.514;2023-09-07T09:31:45;96067.97;;;28.67;39.40
20860;BME280;10590;48.154;11.514;2023-09-07T09:37:12;96052.41;;;29.89;37.79
20860;BME280;10590;48.154;11.514;2023-09-07T09:42:36;96048.44;;;30.22;37.46
20860;BME280;10590;48.154;11.514;2023-09-07T09:47:59;96062.81;;;30.75;36.39
20860;BME280;10590;48.154;11.514;2023-09-07T09:53:21;96038.28;;;30.35;36.91
20860;BME280;10590;48.154;11.514;2023-09-07T09:58:44;96057.53;;;30.81;37.33
20860;BME280;10590;48.154;11.514;2023-09-07T10:04:06;96055.38;;;31.01;36.87
20860;BME280;10590;48.154;11.514;2023-09-07T10:09:32;96058.88;;;26.58;45.26
20860;BME280;10590;48.154;11.514;2023-09-07T10:14:55;96056.09;;;29.82;38.23
20860;BME280;10590;48.154;11.514;2023-09-07T10:20:17;96054.47;;;29.68;38.11
20860;BME280;10590;48.154;11.514;2023-09-07T10:25:39;96051.44;;;29.95;37.95
20860;BME280;10590;48.154;11.514;2023-09-07T10:31:04;96048.47;;;31.98;35.42
20860;BME280;10590;48.154;11.514;2023-09-07T10:36:27;96049.94;;;30.85;36.30
20860;BME280;10590;48.154;11.514;2023-09-07T10:41:49;96036.47;;;31.54;36.07
20860;BME280;10590;48.154;11.514;2023-09-07T10:47:12;96021.66;;;30.39;37.74
20860;BME280;10590;48.154;11.514;2023-09-07T10:52:34;96035.41;;;31.10;36.48
20860;BME280;10590;48.154;11.514;2023-09-07T10:57:55;96047.94;;;31.90;36.00
20860;BME280;10590;48.154;11.514;2023-09-07T11:03:19;96029.94;;;31.86;34.59
20860;BME280;10590;48.154;11.514;2023-09-07T11:08:41;96030.41;;;31.72;35.11
20860;BME280;10590;48.154;11.514;2023-09-07T11:14:03;96027.25;;;33.61;32.13
20860;BME280;10590;48.154;11.514;2023-09-07T11:19:26;96021.59;;;31.77;34.94
20860;BME280;10590;48.154;11.514;2023-09-07T11:24:48;96020.81;;;31.76;34.96
20860;BME280;10590;48.154;11.514;2023-09-07T11:30:10;96020.34;;;31.90;34.76
20860;BME280;10590;48.154;11.514;2023-09-07T11:35:34;96022.03;;;32.57;34.65
20860;BME280;10590;48.154;11.514;2023-09-07T11:40:56;96029.00;;;30.87;36.49
20860;BME280;10590;48.154;11.514;2023-09-07T11:46:18;96020.47;;;31.74;35.05
20860;BME280;10590;48.154;11.514;2023-09-07T11:51:41;96018.06;;;30.84;36.84
20860;BME280;10590;48.154;11.514;2023-09-07T11:57:03;95999.47;;;31.89;34.29
20860;BME280;10590;48.154;11.514;2023-09-07T12:02:25;96008.94;;;30.99;36.34
20860;BME280;10590;48.154;11.514;2023-09-07T12:07:48;96013.25;;;27.90;42.37
20860;BME280;10590;48.154;11.514;2023-09-07T12:13:10;96006.75;;;27.03;44.47
20860;BME280;10590;48.154;11.514;2023-09-07T12:18:32;96003.88;;;30.98;36.74
20860;BME280;10590;48.154;11.514;2023-09-07T12:23:55;95995.94;;;32.58;33.79
20860;BME280;10590;48.154;11.514;2023-09-07T12:29:16;96004.91;;;30.01;37.76
20860;BME280;10590;48.154;11.514;2023-09-07T12:34:38;95997.44;;;29.00;40.37
20860;BME280;10590;48.154;11.514;2023-09-07T12:40:02;95987.31;;;28.38;42.20
20860;BME280;10590;48.154;11.514;2023-09-07T12:45:31;95998.69;;;27.70;43.33
20860;BME280;10590;48.154;11.514;2023-09-07T12:50:53;95988.00;;;26.33;46.40
20860;BME280;10590;48.154;11.514;2023-09-07T12:56:16;95984.69;;;26.80;45.29
20860;BME280;10590;48.154;11.514;2023-09-07T13:01:38;95983.47;;;26.84;44.68
20860;BME280;10590;48.154;11.514;2023-09-07T13:07:00;95975.75;;;29.22;39.12
20860;BME280;10590;48.154;11.514;2023-09-07T13:12:23;95979.63;;;29.41;37.78
20860;BME280;10590;48.154;11.514;2023-09-07T13:17:45;95982.97;;;29.16;38.66
20860;BME280;10590;48.154;11.514;2023-09-07T13:23:07;95981.31;;;27.53;41.54
20860;BME280;10590;48.154;11.514;2023-09-07T13:28:30;95981.88;;;27.17;42.23
20860;BME280;10590;48.154;11.514;2023-09-07T13:33:52;95969.78;;;26.20;44.38
20860;BME280;10590;48.154;11.514;2023-09-07T13:39:13;95972.63;;;26.09;43.78
20860;BME280;10590;48.154;11.514;2023-09-07T13:44:36;95963.06;;;25.87;43.58
20860;BME280;10590;48.154;11.514;2023-09-07T13:49:58;95962.69;;;25.85;42.64
20860;BME280;10590;48.154;11.514;2023-09-07T13:55:19;95964.25;;;26.23;40.64
20860;BME280;10590;48.154;11.514;2023-09-07T14:00:43;95957.88;;;25.96;41.03
20860;BME280;10590;48.154;11.514;2023-09-07T14:06:04;95960.63;;;25.96;41.03
20860;BME280;10590;48.154;11.514;2023-09-07T14:11:26;95951.34;;;26.88;39.87
20860;BME280;10590;48.154;11.514;2023-09-07T14:16:49;95952.06;;;25.94;40.78
20860;BME280;10590;48.154;11.514;2023-09-07T14:22:15;95959.53;;;26.27;40.49
20860;BME280;10590;48.154;11.514;2023-09-07T14:27:37;95959.63;;;25.79;41.66
20860;BME280;10590;48.154;11.514;2023-09-07T14:33:00;95956.63;;;25.63;42.03
20860;BME280;10590;48.154;11.514;2023-09-07T14:38:21;95961.78;;;25.98;41.72
20860;BME280;10590;48.154;11.514;2023-09-07T14:43:44;95943.09;;;25.49;42.91
20860;BME280;10590;48.154;11.514;2023-09-07T14:49:07;95966.44;;;25.57;42.67
20860;BME280;10590;48.154;11.514;2023-09-07T14:54:29;95958.69;;;25.52;43.30
20860;BME280;10590;48.154;11.514;2023-09-07T14:59:50;95934.25;;;25.30;43.06
20860;BME280;10590;48.154;11.514;2023-09-07T15:05:14;95957.69;;;25.31;43.38
20860;BME280;10590;48.154;11.514;2023-09-07T15:10:35;95966.47;;;25.53;42.65
20860;BME280;10590;48.154;11.514;2023-09-07T15:15:57;95957.00;;;25.65;41.77
20860;BME280;10590;48.154;11.514;2023-09-07T15:21:20;95939.72;;;26.16;40.92
20860;BME280;10590;48.154;11.514;2023-09-07T15:26:42;95954.09;;;26.24;40.90
20860;BME280;10590;48.154;11.514;2023-09-07T15:32:05;95954.13;;;26.85;39.63
20860;BME280;10590;48.154;11.514;2023-09-07T15:37:28;95934.25;;;26.50;39.24
20860;BME280;10590;48.154;11.514;2023-09-07T15:42:50;95952.91;;;27.67;38.32
20860;BME280;10590;48.154;11.514;2023-09-07T15:48:12;95953.00;;;27.59;36.95
20860;BME280;10590;48.154;11.514;2023-09-07T15:53:35;95966.69;;;27.86;34.91
20860;BME280;10590;48.154;11.514;2023-09-07T15:58:57;95960.91;;;27.81;35.78
20860;BME280;10590;48.154;11.514;2023-09-07T16:04:19;95949.53;;;27.32;35.91
20860;BME280;10590;48.154;11.514;2023-09-07T16:09:42;95948.88;;;27.24;36.54
20860;BME280;10590;48.154;11.514;2023-09-07T16:15:05;95955.88;;;26.72;36.67
20860;BME280;10590;48.154;11.514;2023-09-07T16:20:27;95952.78;;;25.98;38.64
20860;BME280;10590;48.154;11.514;2023-09-07T16:25:50;95957.81;;;26.07;38.62
20860;BME280;10590;48.154;11.514;2023-09-07T16:31:12;95959.69;;;26.78;37.66
20860;BME280;10590;48.154;11.514;2023-09-07T16:36:34;95950.53;;;26.61;37.95
20860;BME280;10590;48.154;11.514;2023-09-07T16:41:58;95960.91;;;26.09;38.43
20860;BME280;10590;48.154;11.514;2023-09-07T16:47:20;95953.16;;;25.59;39.28
20860;BME280;10590;48.154;11.514;2023-09-07T16:52:42;95962.44;;;25.20;41.00
20860;BME280;10590;48.154;11.514;2023-09-07T16:58:05;95951.53;;;24.47;42.54
20860;BME280;10590;48.154;11.514;2023-09-07T17:03:27;95940.75;;;23.97;43.73
20860;BME280;10590;48.154;11.514;2023-09-07T17:08:48;95962.13;;;24.09;43.78
20860;BME280;10590;48.154;11.514;2023-09-07T17:14:12;95965.69;;;23.92;45.46
20860;BME280;10590;48.154;11.514;2023-09-07T17:19:33;95962.59;;;23.47;45.50
20860;BME280;10590;48.154;11.514;2023-09-07T17:24:55;95970.75;;;23.40;46.72
20860;BME280;10590;48.154;11.514;2023-09-07T17:30:18;95957.91;;;23.27;47.16
20860;BME280;10590;48.154;11.514;2023-09-07T17:35:40;95972.69;;;23.15;48.15
20860;BME280;10590;48.154;11.514;2023-09-07T17:41:02;95948.94;;;22.94;48.34
20860;BME280;10590;48.154;11.514;2023-09-07T17:46:27;95951.59;;;22.69;49.68
20860;BME280;10590;48.154;11.514;2023-09-07T17:51:50;95974.91;;;22.70;50.82
20860;BME280;10590;48.154;11.514;2023-09-07T17:57:13;95979.06;;;22.46;51.16
20860;BME280;10590;48.154;11.514;2023-09-07T18:02:36;95980.53;;;22.22;52.22
20860;BME280;10590;48.154;11.514;2023-09-07T18:08:00;95981.06;;;21.84;54.14
20860;BME280;10590;48.154;11.514;2023-09-07T18:13:23;95987.03;;;21.52;55.70
20860;BME280;10590;48.154;11.514;2023-09-07T18:18:46;95984.88;;;20.87;58.02
20860;BME280;10590;48.154;11.514;2023-09-07T18:24:07;95986.28;;;20.41;59.17
20860;BME280;10590;48.154;11.514;2023-09-07T18:29:29;95990.03;;;20.32;60.88
20860;BME280;10590;48.154;11.514;2023-09-07T18:34:52;95988.53;;;19.79;62.88
20860;BME280;10590;48.154;11.514;2023-09-07T18:40:14;95965.91;;;19.67;62.99
20860;BME280;10590;48.154;11.514;2023-09-07T18:45:36;95985.03;;;20.04;62.31
20860;BME280;10590;48.154;11.514;2023-09-07T18:51:03;95988.25;;;19.87;62.83
20860;BME280;10590;48.154;11.514;2023-09-07T18:56:25;95987.28;;;19.99;62.47
20860;BME280;10590;48.154;11.514;2023-09-07T19:01:46;95990.00;;;19.99;63.08
20860;BME280;10590;48.154;11.514;2023-09-07T19:07:14;95992.59;;;19.65;64.26
20860;BME280;10590;48.154;11.514;2023-09-07T19:12:40;95985.25;;;18.97;66.76
20860;BME280;10590;48.154;11.514;2023-09-07T19:18:03;95985.72;;;18.61;68.74
20860;BME280;10590;48.154;11.514;2023-09-07T19:23:26;95985.78;;;18.45;69.50
20860;BME280;10590;48.154;11.514;2023-09-07T19:28:48;95973.97;;;18.14;70.34
20860;BME280;10590;48.154;11.514;2023-09-07T19:34:10;95981.25;;;18.30;70.47
20860;BME280;10590;48.154;11.514;2023-09-07T19:39:34;95983.66;;;18.54;68.82
20860;BME280;10590;48.154;11.514;2023-09-07T19:44:55;95983.09;;;18.64;69.08
20860;BME280;10590;48.154;11.514;2023-09-07T19:50:17;95985.03;;;18.64;69.06
20860;BME280;10590;48.154;11.514;2023-09-07T19:55:41;95987.50;;;18.72;68.62
20860;BME280;10590;48.154;11.514;2023-09-07T20:01:03;95989.41;;;18.53;69.26
20860;BME280;10590;48.154;11.514;2023-09-07T20:06:24;95993.38;;;18.20;69.75
20860;BME280;10590;48.154;11.514;2023-09-07T20:11:47;95993.41;;;18.39;69.39
20860;BME280;10590;48.154;11.514;2023-09-07T20:17:09;95994.41;;;18.51;69.30
20860;BME280;10590;48.154;11.514;2023-09-07T20:22:34;95981.03;;;18.38;70.02
20860;BME280;10590;48.154;11.514;2023-09-07T20:27:58;95957.63;;;18.07;70.12
20860;BME280;10590;48.154;11.514;2023-09-07T20:33:19;95990.66;;;18.20;70.98
20860;BME280;10590;48.154;11.514;2023-09-07T20:38:42;95992.09;;;18.14;71.32
20860;BME280;10590;48.154;11.514;2023-09-07T20:44:05;95972.03;;;17.96;72.00
20860;BME280;10590;48.154;11.514;2023-09-07T20:49:27;95993.25;;;17.78;72.79
20860;BME280;10590;48.154;11.514;2023-09-07T20:54:49;95995.88;;;17.74;73.23
20860;BME280;10590;48.154;11.514;2023-09-07T21:00:13;95994.72;;;17.28;75.18
20860;BME280;10590;48.154;11.514;2023-09-07T21:05:35;95988.63;;;17.31;75.07
20860;BME280;10590;48.154;11.514;2023-09-07T21:10:56;95998.16;;;17.41;74.74
20860;BME280;10590;48.154;11.514;2023-09-07T21:16:20;95996.91;;;17.07;76.56
20860;BME280;10590;48.154;11.514;2023-09-07T21:21:41;95989.50;;;16.88;77.78
20860;BME280;10590;48.154;11.514;2023-09-07T21:27:03;95977.50;;;17.01;76.95
20860;BME280;10590;48.154;11.514;2023-09-07T21:32:27;95984.88;;;16.88;77.01
20860;BME280;10590;48.154;11.514;2023-09-07T21:37:49;95954.28;;;16.53;77.35
20860;BME280;10590;48.154;11.514;2023-09-07T21:43:10;95963.66;;;16.71;76.90
20860;BME280;10590;48.154;11.514;2023-09-07T21:48:33;95967.75;;;16.81;76.75
20860;BME280;10590;48.154;11.514;2023-09-07T21:53:55;95999.13;;;16.73;77.82
20860;BME280;10590;48.154;11.514;2023-09-07T21:59:17;95992.03;;;16.41;79.05
20860;BME280;10590;48.154;11.514;2023-09-07T22:04:40;95986.44;;;16.06;81.14
20860;BME280;10590;48.154;11.514;2023-09-07T22:10:02;95987.53;;;16.45;79.76
20860;BME280;10590;48.154;11.514;2023-09-07T22:15:24;95966.31;;;16.43;79.12
20860;BME280;10590;48.154;11.514;2023-09-07T22:20:47;95977.72;;;16.24;80.82
20860;BME280;10590;48.154;11.514;2023-09-07T22:26:10;95991.28;;;16.28;80.08
20860;BME280;10590;48.154;11.514;2023-09-07T22:31:32;95979.03;;;16.03;81.46
20860;BME280;10590;48.154;11.514;2023-09-07T22:36:55;95977.19;;;16.19;80.55
20860;BME280;10590;48.154;11.514;2023-09-07T22:42:16;95981.78;;;16.18;80.66
20860;BME280;10590;48.154;11.514;2023-09-07T22:47:38;95976.47;;;15.94;81.77
20860;BME280;10590;48.154;11.514;2023-09-07T22:53:01;95963.13;;;15.98;81.11
20860;BME280;10590;48.154;11.514;2023-09-07T22:58:23;95976.72;;;15.89;82.24
20860;BME280;10590;48.154;11.514;2023-09-07T23:03:44;95981.31;;;15.88;81.96
20860;BME280;10590;48.154;11.514;2023-09-07T23:09:08;95971.47;;;15.44;84.26
20860;BME280;10590;48.154;11.514;2023-09-07T23:14:31;95985.81;;;15.23;84.97
20860;BME280;10590;48.154;11.514;2023-09-07T23:19:53;95977.97;;;15.06;86.50
20860;BME280;10590;48.154;11.514;2023-09-07T23:25:16;95984.91;;;15.44;84.71
20860;BME280;10590;48.154;11.514;2023-09-07T23:30:38;95974.16;;;15.32;84.17
20860;BME280;10590;48.154;11.514;2023-09-07T23:35:59;95976.47;;;14.84;86.81
20860;BME280;10590;48.154;11.514;2023-09-07T23:41:22;95973.50;;;14.65;87.92
20860;BME280;10590;48.154;11.514;2023-09-07T23:46:44;95968.09;;;15.10;86.93
20860;BME280;10590;48.154;11.514;2023-09-07T23:52:06;95970.13;;;15.13;85.65
20860;BME280;10590;48.154;11.514;2023-09-07T23:57:29;95978.63;;;15.03;85.90
